createdAt,value
2023-05-14T00:01:15.490Z,100.00
2023-05-14T00:03:45.702Z,100.00
2023-05-14T00:06:15.447Z,100.00
2023-05-14T00:08:45.522Z,100.00
2023-05-14T00:11:15.200Z,100.00
2023-05-14T00:13:45.478Z,100.00
2023-05-14T00:16:16.634Z,100.00
2023-05-14T00:18:46.864Z,100.00
2023-05-14T00:21:17.466Z,100.00
2023-05-14T00:23:47.598Z,100.00
2023-05-14T00:26:17.589Z,100.00
2023-05-14T00:28:49.383Z,100.00
2023-05-14T00:31:20.592Z,100.00
2023-05-14T00:33:51.390Z,100.00
2023-05-14T00:36:21.173Z,100.00
2023-05-14T00:38:51.649Z,100.00
2023-05-14T00:41:21.266Z,100.00
2023-05-14T00:43:51.387Z,100.00
2023-05-14T00:46:22.870Z,100.00
2023-05-14T00:48:54.000Z,100.00
2023-05-14T00:51:23.801Z,100.00
2023-05-14T00:53:54.062Z,100.00
2023-05-14T00:56:23.802Z,100.00
2023-05-14T00:58:53.860Z,100.00
2023-05-14T01:01:24.924Z,100.00
2023-05-14T01:03:58.140Z,100.00
2023-05-14T01:06:30.442Z,100.00
2023-05-14T01:09:03.896Z,100.00
2023-05-14T01:11:35.410Z,100.00
2023-05-14T01:14:09.807Z,100.00
2023-05-14T01:16:42.018Z,100.00
2023-05-14T01:19:18.839Z,100.00
2023-05-14T01:21:49.997Z,100.00
2023-05-14T01:24:20.601Z,100.00
2023-05-14T01:26:51.460Z,100.00
2023-05-14T01:29:23.599Z,100.00
2023-05-14T01:31:55.869Z,100.00
2023-05-14T01:34:26.199Z,100.00
2023-05-14T01:37:52.469Z,100.00
2023-05-14T01:40:24.638Z,100.00
2023-05-14T01:42:54.809Z,100.00
2023-05-14T01:45:25.352Z,100.00
2023-05-14T01:47:55.245Z,100.00
2023-05-14T01:50:25.536Z,100.00
2023-05-14T01:52:57.750Z,100.00
2023-05-14T01:55:27.796Z,100.00
2023-05-14T01:57:57.535Z,100.00
2023-05-14T02:00:27.660Z,100.00
2023-05-14T02:02:57.295Z,100.00
2023-05-14T02:05:27.501Z,100.00
2023-05-14T02:07:58.777Z,100.00
2023-05-14T02:10:28.739Z,100.00
2023-05-14T02:12:58.552Z,100.00
2023-05-14T02:15:28.668Z,100.00
2023-05-14T02:17:58.446Z,100.00
2023-05-14T02:20:28.750Z,100.00
2023-05-14T02:23:00.121Z,100.00
2023-05-14T02:25:30.187Z,100.00
2023-05-14T02:28:00.097Z,100.00
2023-05-14T02:30:31.733Z,100.00
2023-05-14T02:33:01.646Z,100.00
2023-05-14T02:35:31.867Z,100.00
2023-05-14T02:38:03.590Z,100.00
2023-05-14T02:40:33.760Z,100.00
2023-05-14T02:43:03.724Z,100.00
2023-05-14T02:45:33.831Z,100.00
2023-05-14T02:48:03.665Z,100.00
2023-05-14T02:50:34.195Z,100.00
2023-05-14T02:53:05.535Z,100.00
2023-05-14T02:55:35.990Z,100.00
2023-05-14T02:58:05.944Z,100.00
2023-05-14T03:00:36.058Z,100.00
2023-05-14T03:03:06.349Z,100.00
2023-05-14T03:05:37.094Z,100.00
2023-05-14T03:08:08.321Z,100.00
2023-05-14T03:10:38.470Z,100.00
2023-05-14T03:13:08.273Z,100.00
2023-05-14T03:15:38.301Z,100.00
2023-05-14T03:18:08.548Z,100.00
2023-05-14T03:20:38.792Z,100.00
2023-05-14T03:23:10.270Z,100.00
2023-05-14T03:25:40.292Z,100.00
2023-05-14T03:28:10.075Z,100.00
2023-05-14T03:30:40.351Z,100.00
2023-05-14T03:33:10.311Z,100.00
2023-05-14T03:35:40.691Z,100.00
2023-05-14T03:38:11.783Z,100.00
2023-05-14T03:40:41.912Z,100.00
2023-05-14T03:43:12.862Z,100.00
2023-05-14T03:45:43.264Z,100.00
2023-05-14T03:48:13.019Z,100.00
2023-05-14T03:50:43.460Z,100.00
2023-05-14T03:53:14.662Z,100.00
2023-05-14T03:55:45.721Z,100.00
2023-05-14T03:58:15.368Z,100.00
2023-05-14T04:00:45.411Z,100.00
2023-05-14T04:03:15.403Z,100.00
2023-05-14T04:05:45.558Z,100.00
2023-05-14T04:08:16.839Z,100.00
2023-05-14T04:10:46.870Z,100.00
2023-05-14T04:13:16.622Z,100.00
2023-05-14T04:15:47.262Z,100.00
2023-05-14T04:18:17.612Z,100.00
2023-05-14T04:20:47.673Z,100.00
2023-05-14T04:23:18.844Z,100.00
2023-05-14T04:25:48.930Z,100.00
2023-05-14T04:28:18.668Z,100.00
2023-05-14T04:30:49.851Z,97.60
2023-05-14T04:33:19.741Z,97.23
2023-05-14T04:35:50.109Z,96.08
2023-05-14T04:38:21.516Z,95.03
2023-05-14T04:40:51.673Z,95.45
2023-05-14T04:43:21.350Z,94.70
2023-05-14T04:45:52.844Z,91.74
2023-05-14T04:48:22.740Z,92.10
2023-05-14T04:50:53.855Z,90.23
2023-05-14T04:53:25.236Z,91.35
2023-05-14T04:55:55.676Z,91.69
2023-05-14T04:58:25.415Z,90.32
2023-05-14T05:00:55.470Z,91.03
2023-05-14T05:03:25.601Z,89.98
2023-05-14T05:05:55.831Z,88.78
2023-05-14T05:08:28.317Z,87.17
2023-05-14T05:10:58.444Z,87.50
2023-05-14T05:13:28.292Z,86.60
2023-05-14T05:15:58.415Z,86.74
2023-05-14T05:18:28.343Z,86.03
2023-05-14T05:20:58.657Z,85.11
2023-05-14T05:23:29.978Z,84.28
2023-05-14T05:26:00.131Z,83.52
2023-05-14T05:28:33.866Z,82.45
2023-05-14T05:31:06.499Z,79.27
2023-05-14T05:33:37.989Z,76.37
2023-05-14T05:36:08.487Z,75.36
2023-05-14T05:38:42.665Z,76.25
2023-05-14T05:41:13.046Z,76.29
2023-05-14T05:43:42.829Z,74.13
2023-05-14T05:46:13.504Z,72.82
2023-05-14T05:48:43.308Z,73.88
2023-05-14T05:51:13.465Z,73.95
2023-05-14T05:53:44.671Z,74.12
2023-05-14T05:56:14.875Z,73.62
2023-05-14T05:58:44.468Z,74.04
2023-05-14T06:01:14.726Z,72.96
2023-05-14T06:03:46.915Z,72.80
2023-05-14T06:06:18.523Z,69.52
2023-05-14T06:08:49.887Z,69.17
2023-05-14T06:11:20.099Z,66.74
2023-05-14T06:13:49.886Z,64.17
2023-05-14T06:16:20.140Z,61.77
2023-05-14T06:18:50.198Z,60.44
2023-05-14T06:21:20.487Z,61.53
2023-05-14T06:23:51.847Z,60.71
2023-05-14T06:26:22.594Z,60.74
2023-05-14T06:28:52.284Z,60.18
2023-05-14T06:31:22.359Z,58.18
2023-05-14T06:33:52.356Z,59.37
2023-05-14T06:36:22.476Z,58.59
2023-05-14T06:38:54.154Z,57.93
2023-05-14T06:41:24.406Z,58.08
2023-05-14T06:43:54.252Z,59.37
2023-05-14T06:46:24.549Z,59.24
2023-05-14T06:48:54.819Z,58.64
2023-05-14T06:51:25.873Z,58.69
2023-05-14T06:53:57.970Z,56.45
2023-05-14T06:56:28.176Z,56.15
2023-05-14T06:58:58.015Z,57.48
2023-05-14T07:01:28.352Z,56.69
2023-05-14T07:03:58.344Z,53.37
2023-05-14T07:06:28.533Z,52.60
2023-05-14T07:08:59.965Z,52.28
2023-05-14T07:11:30.298Z,52.34
2023-05-14T07:14:00.150Z,53.06
2023-05-14T07:16:30.387Z,52.86
2023-05-14T07:19:00.204Z,51.79
2023-05-14T07:21:30.913Z,52.38
2023-05-14T07:24:02.316Z,51.34
2023-05-14T07:26:32.465Z,52.46
2023-05-14T07:29:02.140Z,52.46
2023-05-14T07:31:32.632Z,50.61
2023-05-14T07:34:02.606Z,49.99
2023-05-14T07:36:32.803Z,49.04
2023-05-14T07:39:04.029Z,49.16
2023-05-14T07:41:34.184Z,49.14
2023-05-14T07:44:04.124Z,47.01
2023-05-14T07:46:34.542Z,47.34
2023-05-14T07:49:04.289Z,48.79
2023-05-14T07:51:35.054Z,47.23
2023-05-14T07:54:06.685Z,46.51
2023-05-14T07:56:38.268Z,45.77
2023-05-14T07:59:08.747Z,46.03
2023-05-14T08:01:39.519Z,44.50
2023-05-14T08:04:11.960Z,44.39
2023-05-14T08:06:42.938Z,44.36
2023-05-14T08:09:14.675Z,45.57
2023-05-14T08:11:44.625Z,45.40
2023-05-14T08:14:14.466Z,46.41
2023-05-14T08:16:44.508Z,47.11
2023-05-14T08:19:15.005Z,48.15
2023-05-14T08:21:45.293Z,47.38
2023-05-14T08:24:16.512Z,44.79
2023-05-14T08:26:46.896Z,45.37
2023-05-14T08:29:16.854Z,44.32
2023-05-14T08:31:47.089Z,46.95
2023-05-14T08:34:16.881Z,46.22
2023-05-14T08:36:46.978Z,46.84
2023-05-14T08:39:18.265Z,46.49
2023-05-14T08:41:48.727Z,46.01
2023-05-14T08:44:20.407Z,46.34
2023-05-14T08:46:51.471Z,44.83
2023-05-14T08:49:24.657Z,44.98
2023-05-14T08:51:54.752Z,44.27
2023-05-14T08:54:26.737Z,43.73
2023-05-14T08:56:57.157Z,42.97
2023-05-14T08:59:27.084Z,40.23
2023-05-14T09:01:58.075Z,41.22
2023-05-14T09:04:28.072Z,39.96
2023-05-14T09:06:58.236Z,40.46
2023-05-14T09:09:29.985Z,40.63
2023-05-14T09:12:00.182Z,39.96
2023-05-14T09:14:29.937Z,39.60
2023-05-14T09:17:00.176Z,37.83
2023-05-14T09:19:30.235Z,38.11
2023-05-14T09:22:00.659Z,38.31
2023-05-14T09:24:31.904Z,37.74
2023-05-14T09:27:02.176Z,36.99
2023-05-14T09:29:32.405Z,37.55
2023-05-14T09:32:05.893Z,37.35
2023-05-14T09:34:38.164Z,36.40
2023-05-14T09:37:09.283Z,36.08
2023-05-14T09:39:40.850Z,36.76
2023-05-14T09:42:11.138Z,38.35
2023-05-14T09:44:40.879Z,37.49
2023-05-14T09:47:10.945Z,35.18
2023-05-14T09:49:41.451Z,35.51
2023-05-14T09:52:13.505Z,34.67
2023-05-14T09:54:44.997Z,34.91
2023-05-14T09:57:15.397Z,34.52
2023-05-14T09:59:45.167Z,34.78
2023-05-14T10:02:18.594Z,35.15
2023-05-14T10:04:48.715Z,35.22
2023-05-14T10:07:20.976Z,35.22
2023-05-14T10:09:57.597Z,36.44
2023-05-14T10:12:30.695Z,36.58
2023-05-14T10:15:03.187Z,34.83
2023-05-14T10:17:33.972Z,35.56
2023-05-14T10:20:04.652Z,35.46
2023-05-14T10:22:36.401Z,36.63
2023-05-14T10:25:08.770Z,34.02
2023-05-14T10:27:39.058Z,35.04
2023-05-14T10:30:13.335Z,35.90
2023-05-14T10:32:44.532Z,36.54
2023-05-14T10:35:18.120Z,35.74
2023-05-14T10:37:48.272Z,35.72
2023-05-14T10:40:20.176Z,35.65
2023-05-14T10:42:50.442Z,36.89
2023-05-14T10:45:20.404Z,35.79
2023-05-14T10:47:50.709Z,34.66
2023-05-14T10:50:20.532Z,32.83
2023-05-14T10:52:50.847Z,32.74
2023-05-14T10:55:23.071Z,33.24
2023-05-14T10:57:54.092Z,34.83
2023-05-14T11:00:28.048Z,36.75
2023-05-14T11:02:58.760Z,40.29
2023-05-14T11:05:28.716Z,42.70
2023-05-14T11:07:59.720Z,43.70
2023-05-14T11:10:31.156Z,44.87
2023-05-14T11:13:01.402Z,44.84
2023-05-14T11:15:31.196Z,46.18
2023-05-14T11:18:01.272Z,45.85
2023-05-14T11:20:33.061Z,45.43
2023-05-14T11:23:03.921Z,44.75
2023-05-14T11:25:35.100Z,44.61
2023-05-14T11:28:05.399Z,44.92
2023-05-14T11:30:35.422Z,42.35
2023-05-14T11:33:05.723Z,42.11
2023-05-14T11:35:37.652Z,42.63
2023-05-14T11:38:17.549Z,42.44
2023-05-14T11:40:55.486Z,41.21
2023-05-14T11:43:26.476Z,41.01
2023-05-14T11:45:56.980Z,41.35
2023-05-14T11:48:27.095Z,39.75
2023-05-14T11:50:56.776Z,40.04
2023-05-14T11:53:27.621Z,39.32
2023-05-14T11:55:58.901Z,39.46
2023-05-14T11:58:28.954Z,39.75
2023-05-14T12:00:58.667Z,40.36
2023-05-14T12:03:30.334Z,39.81
2023-05-14T12:06:01.111Z,39.81
2023-05-14T12:08:32.555Z,40.87
2023-05-14T12:11:03.926Z,40.57
2023-05-14T12:13:34.639Z,44.76
2023-05-14T12:16:04.396Z,44.44
2023-05-14T12:18:35.216Z,43.48
2023-05-14T12:21:05.444Z,42.25
2023-05-14T12:23:35.964Z,41.30
2023-05-14T12:26:08.421Z,41.01
2023-05-14T12:28:43.700Z,40.72
2023-05-14T12:31:13.572Z,39.79
2023-05-14T12:33:43.587Z,38.95
2023-05-14T12:36:21.251Z,39.21
2023-05-14T12:38:52.904Z,39.92
2023-05-14T12:41:24.159Z,39.67
2023-05-14T12:43:54.402Z,40.67
2023-05-14T12:46:24.572Z,41.06
2023-05-14T12:48:54.750Z,40.89
2023-05-14T12:51:24.589Z,41.83
2023-05-14T12:53:54.715Z,41.58
2023-05-14T12:56:28.715Z,43.00
2023-05-14T12:58:58.935Z,42.09
2023-05-14T13:01:31.564Z,41.42
2023-05-14T13:04:02.599Z,41.43
2023-05-14T13:06:33.140Z,40.82
2023-05-14T13:09:04.739Z,39.93
2023-05-14T13:11:37.262Z,40.64
2023-05-14T13:14:08.096Z,41.07
2023-05-14T13:16:38.167Z,41.76
2023-05-14T13:19:08.653Z,42.54
2023-05-14T13:21:43.547Z,43.31
2023-05-14T13:24:14.349Z,43.62
2023-05-14T13:26:46.034Z,43.87
2023-05-14T13:29:17.900Z,44.89
2023-05-14T13:31:48.390Z,44.47
2023-05-14T13:34:18.615Z,45.25
2023-05-14T13:36:50.106Z,43.14
2023-05-14T13:39:23.042Z,43.22
2023-05-14T13:41:56.156Z,41.45
2023-05-14T13:44:26.437Z,42.38
2023-05-14T13:47:00.316Z,41.77
2023-05-14T13:49:31.364Z,41.44
2023-05-14T13:52:01.086Z,42.63
2023-05-14T13:54:31.195Z,43.57
2023-05-14T13:57:02.633Z,43.78
2023-05-14T13:59:32.969Z,43.81
2023-05-14T14:02:03.200Z,43.92
2023-05-14T14:04:33.457Z,44.25
2023-05-14T14:07:04.733Z,45.48
2023-05-14T14:09:36.298Z,44.49
2023-05-14T14:12:08.436Z,44.92
2023-05-14T14:14:38.776Z,45.49
2023-05-14T14:17:09.331Z,45.74
2023-05-14T14:19:39.395Z,46.18
2023-05-14T14:22:09.124Z,45.29
2023-05-14T14:24:39.182Z,45.54
2023-05-14T14:27:10.588Z,45.73
2023-05-14T14:29:40.708Z,45.95
2023-05-14T14:32:10.589Z,46.82
2023-05-14T14:34:40.591Z,44.69
2023-05-14T14:37:10.321Z,45.43
2023-05-14T14:39:40.681Z,42.40
2023-05-14T14:42:12.000Z,42.57
2023-05-14T14:44:42.085Z,42.37
2023-05-14T14:47:11.989Z,41.93
2023-05-14T14:49:42.242Z,41.80
2023-05-14T14:52:12.104Z,42.83
2023-05-14T14:54:42.309Z,43.24
2023-05-14T14:57:13.642Z,43.46
2023-05-14T14:59:43.698Z,42.80
2023-05-14T15:02:13.497Z,43.71
2023-05-14T15:04:44.037Z,43.26
2023-05-14T15:07:16.334Z,42.89
2023-05-14T15:09:46.965Z,42.43
2023-05-14T15:12:18.614Z,43.11
2023-05-14T15:14:49.155Z,42.20
2023-05-14T15:17:18.814Z,42.27
2023-05-14T15:19:48.813Z,42.44
2023-05-14T15:22:18.574Z,42.82
2023-05-14T15:24:48.920Z,43.36
2023-05-14T15:27:20.254Z,43.83
2023-05-14T15:29:50.418Z,44.52
2023-05-14T15:32:20.317Z,44.80
2023-05-14T15:34:50.371Z,45.40
2023-05-14T15:37:20.213Z,44.20
2023-05-14T15:39:50.378Z,44.23
2023-05-14T15:42:21.908Z,44.21
2023-05-14T15:44:52.015Z,44.11
2023-05-14T15:47:21.771Z,44.68
2023-05-14T15:49:51.828Z,45.51
2023-05-14T15:52:21.651Z,45.10
2023-05-14T15:54:51.879Z,45.89
2023-05-14T15:57:23.346Z,46.33
2023-05-14T15:59:53.358Z,46.80
2023-05-14T16:02:22.944Z,46.13
2023-05-14T16:04:53.066Z,45.65
2023-05-14T16:07:22.738Z,45.22
2023-05-14T16:09:53.002Z,45.02
2023-05-14T16:12:24.319Z,45.45
2023-05-14T16:14:54.911Z,44.57
2023-05-14T16:17:25.585Z,44.48
2023-05-14T16:19:56.431Z,44.68
2023-05-14T16:22:27.198Z,45.39
2023-05-14T16:24:58.100Z,44.68
2023-05-14T16:27:29.528Z,44.32
2023-05-14T16:29:59.725Z,44.52
2023-05-14T16:32:29.742Z,44.33
2023-05-14T16:35:02.282Z,45.19
2023-05-14T16:37:32.899Z,44.92
2023-05-14T16:40:03.053Z,44.90
2023-05-14T16:42:34.572Z,44.76
2023-05-14T16:45:05.048Z,45.55
2023-05-14T16:47:36.396Z,45.05
2023-05-14T16:50:08.416Z,45.16
2023-05-14T16:52:38.162Z,45.49
2023-05-14T16:55:08.872Z,45.47
2023-05-14T16:57:40.174Z,46.39
2023-05-14T17:00:11.389Z,46.28
2023-05-14T17:02:41.160Z,47.12
2023-05-14T17:05:11.478Z,47.16
2023-05-14T17:07:41.537Z,47.28
2023-05-14T17:10:11.987Z,47.98
2023-05-14T17:12:43.463Z,47.76
2023-05-14T17:15:13.327Z,48.45
2023-05-14T17:17:43.427Z,48.28
2023-05-14T17:20:15.917Z,48.46
2023-05-14T17:22:46.708Z,47.65
2023-05-14T17:25:17.005Z,48.08
2023-05-14T17:27:48.136Z,47.18
2023-05-14T17:30:20.579Z,47.16
2023-05-14T17:32:51.634Z,47.44
2023-05-14T17:35:23.109Z,47.99
2023-05-14T17:37:53.012Z,49.08
2023-05-14T17:40:24.076Z,48.74
2023-05-14T17:42:55.293Z,49.01
2023-05-14T17:45:25.697Z,47.96
2023-05-14T17:47:55.787Z,48.62
2023-05-14T17:50:26.029Z,50.42
2023-05-14T17:52:56.793Z,49.80
2023-05-14T17:55:26.982Z,48.86
2023-05-14T17:57:58.362Z,49.32
2023-05-14T18:00:28.699Z,49.79
2023-05-14T18:02:58.627Z,50.80
2023-05-14T18:05:30.090Z,50.29
2023-05-14T18:07:59.882Z,52.04
2023-05-14T18:10:30.420Z,50.81
2023-05-14T18:13:02.754Z,51.16
2023-05-14T18:15:34.267Z,51.01
2023-05-14T18:18:05.517Z,51.77
2023-05-14T18:20:39.837Z,51.77
2023-05-14T18:23:15.547Z,51.70
2023-05-14T18:25:46.174Z,52.52
2023-05-14T18:28:19.257Z,54.09
2023-05-14T18:30:51.144Z,54.55
2023-05-14T18:33:23.754Z,55.40
2023-05-14T18:35:54.477Z,55.62
2023-05-14T18:38:24.324Z,56.17
2023-05-14T18:40:54.478Z,56.82
2023-05-14T18:43:27.580Z,57.72
2023-05-14T18:46:00.361Z,58.47
2023-05-14T18:48:30.413Z,60.03
2023-05-14T18:51:01.484Z,59.52
2023-05-14T18:53:31.827Z,60.25
2023-05-14T18:56:02.106Z,61.56
2023-05-14T18:58:33.518Z,61.98
2023-05-14T19:01:03.808Z,62.55
2023-05-14T19:03:34.413Z,63.31
2023-05-14T19:06:06.047Z,63.44
2023-05-14T19:08:37.026Z,63.84
2023-05-14T19:11:07.846Z,65.05
2023-05-14T19:13:39.928Z,67.23
2023-05-14T19:16:11.349Z,68.76
2023-05-14T19:18:41.605Z,67.37
2023-05-14T19:21:13.453Z,66.55
2023-05-14T19:23:43.548Z,66.65
2023-05-14T19:26:14.176Z,68.10
2023-05-14T19:28:46.289Z,70.35
2023-05-14T19:31:17.396Z,69.82
2023-05-14T19:33:48.618Z,72.49
2023-05-14T19:36:20.275Z,74.12
2023-05-14T19:38:50.218Z,71.36
2023-05-14T19:41:21.840Z,73.69
2023-05-14T19:43:53.866Z,74.87
2023-05-14T19:46:25.063Z,75.11
2023-05-14T19:48:56.024Z,75.49
2023-05-14T19:51:27.630Z,76.31
2023-05-14T19:53:58.923Z,77.30
2023-05-14T19:56:29.449Z,76.13
2023-05-14T19:59:01.585Z,78.03
2023-05-14T20:01:33.406Z,77.61
2023-05-14T20:04:03.249Z,77.58
2023-05-14T20:06:34.841Z,77.67
2023-05-14T20:09:06.241Z,77.03
2023-05-14T20:11:36.347Z,75.79
2023-05-14T20:14:07.872Z,77.68
2023-05-14T20:16:38.918Z,77.66
2023-05-14T20:19:09.241Z,79.23
2023-05-14T20:21:39.651Z,80.01
2023-05-14T20:24:10.458Z,81.14
2023-05-14T20:26:41.712Z,80.31
2023-05-14T20:29:14.774Z,82.05
2023-05-14T20:31:46.059Z,81.94
2023-05-14T20:34:17.470Z,82.30
2023-05-14T20:36:47.593Z,81.16
2023-05-14T20:39:17.309Z,81.22
2023-05-14T20:41:47.773Z,82.42
2023-05-14T20:44:20.610Z,82.09
2023-05-14T20:46:51.972Z,82.88
2023-05-14T20:49:21.962Z,83.92
2023-05-14T20:51:53.264Z,85.11
2023-05-14T20:54:22.928Z,84.67
2023-05-14T20:56:53.064Z,85.66
2023-05-14T20:59:24.452Z,87.11
2023-05-14T21:01:54.601Z,87.38
2023-05-14T21:04:24.582Z,87.49
2023-05-14T21:06:54.851Z,88.05
2023-05-14T21:09:24.909Z,88.99
2023-05-14T21:11:55.105Z,89.04
2023-05-14T21:14:26.421Z,89.01
2023-05-14T21:16:56.567Z,90.52
2023-05-14T21:19:26.245Z,91.06
2023-05-14T21:21:56.284Z,90.41
2023-05-14T21:24:26.055Z,91.29
2023-05-14T21:26:56.035Z,91.66
2023-05-14T21:29:27.141Z,92.53
2023-05-14T21:31:57.600Z,90.96
2023-05-14T21:34:27.422Z,93.05
2023-05-14T21:36:59.351Z,93.88
2023-05-14T21:39:28.983Z,93.68
2023-05-14T21:41:58.992Z,94.99
2023-05-14T21:44:30.193Z,94.78
2023-05-14T21:47:00.536Z,95.02
2023-05-14T21:49:30.154Z,96.08
2023-05-14T21:52:00.610Z,95.88
2023-05-14T21:54:30.212Z,98.32
2023-05-14T21:57:00.407Z,99.81
2023-05-14T21:59:31.617Z,99.29
2023-05-14T22:04:34.380Z,100.00
2023-05-14T22:07:04.737Z,100.00
2023-05-14T22:09:34.531Z,100.00
2023-05-14T22:12:04.616Z,100.00
2023-05-14T22:14:35.902Z,100.00
2023-05-14T22:17:06.493Z,100.00
2023-05-14T22:19:36.288Z,100.00
2023-05-14T22:22:06.551Z,100.00
2023-05-14T22:24:36.229Z,100.00
2023-05-14T22:27:06.708Z,100.00
2023-05-14T22:29:38.478Z,100.00
2023-05-14T22:32:10.452Z,100.00
2023-05-14T22:34:40.169Z,100.00
2023-05-14T22:37:10.270Z,100.00
2023-05-14T22:39:40.025Z,100.00
2023-05-14T22:42:09.911Z,100.00
2023-05-14T22:44:41.228Z,100.00
2023-05-14T22:47:11.150Z,100.00
2023-05-14T22:49:40.895Z,100.00
2023-05-14T22:52:10.920Z,100.00
2023-05-14T22:54:40.558Z,100.00
2023-05-14T22:57:10.709Z,100.00
2023-05-14T22:59:42.185Z,100.00
2023-05-14T23:02:12.334Z,100.00
2023-05-14T23:04:42.152Z,100.00
2023-05-14T23:07:12.185Z,100.00
2023-05-14T23:09:41.948Z,100.00
2023-05-14T23:12:12.389Z,100.00
2023-05-14T23:14:43.453Z,100.00
2023-05-14T23:17:13.614Z,100.00
2023-05-14T23:19:43.280Z,100.00
2023-05-14T23:22:13.439Z,100.00
2023-05-14T23:24:43.082Z,100.00
2023-05-14T23:27:13.193Z,100.00
2023-05-14T23:29:44.474Z,100.00
2023-05-14T23:32:14.692Z,100.00
2023-05-14T23:34:44.846Z,100.00
2023-05-14T23:37:15.162Z,100.00
2023-05-14T23:39:44.821Z,100.00
2023-05-14T23:42:14.963Z,100.00
2023-05-14T23:44:46.161Z,100.00
2023-05-14T23:47:16.347Z,100.00
2023-05-14T23:49:45.933Z,100.00
2023-05-14T23:52:16.152Z,100.00
2023-05-14T23:54:45.796Z,100.00
2023-05-14T23:57:16.216Z,100.00
2023-05-14T23:59:47.661Z,100.00
